This is the latest recevied weather packets stored in our database for station/object SV4JYD-14. If no packets are shown the sender has not sent any weather packets the latest 1 day(s).
| Time | Temp. | Humidity | Pressure | Rain* | Wind** | Luminosity | Snow |
|---|---|---|---|---|---|---|---|
| 1778012211 | 14.44° C | 69% | 1017 hPa | 0 mm | 1.34 m/s, 0° | - | - |
| 1778011311 | 14.44° C | 68% | 1016 hPa | 0 mm | 1.34 m/s, 220° | - | - |
| 1778010411 | 15° C | 66% | 1016 hPa | 0 mm | 1.34 m/s, 220° | - | - |
| 1778009511 | 15° C | 64% | 1016 hPa | 0 mm | 1.34 m/s, 220° | - | - |
| 1778008610 | 15.56° C | 61% | 1017 hPa | 0 mm | 1.34 m/s, 220° | - | - |
| 1778007710 | 16.11° C | 59% | 1016 hPa | 0 mm | 1.34 m/s, 0° | - | - |
| 1778006810 | 16.67° C | 58% | 1016 hPa | 0 mm | 1.34 m/s, 0° | - | - |
| 1778005910 | 16.67° C | 55% | 1016 hPa | 0 mm | 1.34 m/s, 0° | - | - |
| 1778005010 | 16.67° C | 53% | 1016 hPa | 0 mm | 1.34 m/s, 0° | - | - |
| 1778004109 | 16.11° C | 54% | 1016 hPa | 0 mm | 1.34 m/s, 0° | - | - |
| 1778003209 | 16.67° C | 53% | 1016 hPa | 0 mm | 1.34 m/s, 0° | - | - |
| 1778002309 | 17.22° C | 52% | 1016 hPa | 0 mm | 2.24 m/s, 220° | - | - |
| 1778001409 | 18.33° C | 48% | 1016 hPa | 0 mm | 2.24 m/s, 220° | - | - |
| 1778000508 | 19.44° C | 44% | 1015 hPa | 0 mm | 0.89 m/s, 0° | - | - |
| 1777999608 | 20° C | 42% | 1015 hPa | 0 mm | 0.89 m/s, 0° | - | - |
| 1777998708 | 20° C | 42% | 1015 hPa | 0 mm | 0.89 m/s, 0° | - | - |
| 1777997807 | 20.56° C | 43% | 1015 hPa | 0 mm | 0.89 m/s, 0° | - | - |
| 1777996007 | 21.11° C | 41% | 1015 hPa | 0 mm | 1.34 m/s, 0° | - | - |
| 1777995107 | 21.11° C | 38% | 1015 hPa | 0 mm | 1.34 m/s, 0° | - | - |
| 1777994207 | 21.67° C | 38% | 1015 hPa | 0 mm | 1.34 m/s, 0° | - | - |
| 1777993306 | 20.56° C | 39% | 1015 hPa | 0 mm | 1.79 m/s, 80° | - | - |
| 1777992405 | 20.56° C | 39% | 1015 hPa | 0 mm | 1.79 m/s, 80° | - | - |
| 1777991505 | 21.11° C | 38% | 1015 hPa | 0 mm | 1.79 m/s, 80° | - | - |
| 1777990604 | 20.56° C | 39% | 1016 hPa | 0 mm | 1.79 m/s, 80° | - | - |
| 1777989704 | 20.56° C | 41% | 1015 hPa | 0 mm | 2.24 m/s, 70° | - | - |
* Rain latest hour (hover to see other rain measurements)
** Current wind speed in m/s (hover to see current wind gust speed)